Time;durP1;ratioP1;P1;durP2;ratioP2;P2;SDS_P1;SDS_P2;PMS_P1;PMS_P2;Temp;Humidity;BMP_temperature;BMP_pressure;BME280_temperature;BME280_humidity;BME280_pressure;Samples;Min_cycle;Max_cycle;Signal;HPM_P1;HPM_P2
2022/01/28 00:01:04;;;;;;;12.25;3.78;;;;;;;6.85;100.00;100713.97;4936568;29;20091;-81
2022/01/28 00:03:35;;;;;;;15.13;3.17;;;;;;;7.07;100.00;100716.56;4940249;29;20433;-82
2022/01/28 00:06:01;;;;;;;18.00;3.60;;;;;;;6.97;100.00;100716.50;4934404;29;20024;-83
2022/01/28 00:08:26;;;;;;;14.98;3.83;;;;;;;7.10;100.00;100711.91;4925818;29;20460;-82
2022/01/28 00:10:53;;;;;;;11.93;3.60;;;;;;;7.10;100.00;100716.31;4942986;29;20031;-84
2022/01/28 00:13:22;;;;;;;18.80;4.55;;;;;;;6.97;100.00;100725.19;4915725;29;20044;-83
2022/01/28 00:16:06;;;;;;;17.40;3.58;;;;;;;6.93;100.00;100747.28;4929783;29;20041;-83
2022/01/28 00:40:28;;;;;;;28.35;5.50;;;;;;;6.97;100.00;100748.69;4936099;29;20382;-82
2022/01/28 00:42:54;;;;;;;19.50;5.05;;;;;;;6.85;100.00;100749.69;4917707;29;20032;-83
2022/01/28 00:45:21;;;;;;;15.65;4.53;;;;;;;6.90;100.00;100742.31;4902424;29;20032;-83
2022/01/28 00:47:47;;;;;;;22.35;4.95;;;;;;;6.94;100.00;100740.25;4917514;29;20039;-82
2022/01/28 00:50:15;;;;;;;21.45;4.53;;;;;;;6.71;100.00;100736.03;4933352;29;20035;-83
2022/01/28 00:52:40;;;;;;;17.77;4.78;;;;;;;6.86;100.00;100746.13;4935350;29;20032;-83
2022/01/28 00:55:06;;;;;;;20.42;4.90;;;;;;;6.94;100.00;100748.09;4918845;29;20039;-82
2022/01/28 00:57:32;;;;;;;16.95;5.78;;;;;;;6.90;100.00;100752.75;4934834;29;20491;-82
2022/01/28 00:59:58;;;;;;;20.23;4.85;;;;;;;6.77;100.00;100752.13;4919884;29;20055;-82
2022/01/28 01:02:24;;;;;;;23.75;5.22;;;;;;;6.70;100.00;100750.03;4935092;29;20035;-83
2022/01/28 01:04:50;;;;;;;19.05;5.32;;;;;;;6.93;100.00;100739.44;4919601;29;20179;-82
2022/01/28 01:07:15;;;;;;;18.77;5.07;;;;;;;6.89;100.00;100745.03;4935502;29;20483;-83
2022/01/28 01:09:41;;;;;;;19.60;4.70;;;;;;;6.82;100.00;100745.56;4935210;29;20040;-83
2022/01/28 01:12:08;;;;;;;17.30;4.68;;;;;;;6.80;100.00;100741.41;4935439;29;20528;-83
2022/01/28 01:14:35;;;;;;;15.63;4.70;;;;;;;6.84;100.00;100743.66;4943978;29;20031;-83
2022/01/28 01:17:28;;;;;;;19.92;4.40;;;;;;;6.77;100.00;100746.91;4925978;29;20393;-82
2022/01/28 01:20:08;;;;;;;18.05;4.97;;;;;;;6.84;100.00;100733.22;4928242;29;20046;-84
2022/01/28 01:22:38;;;;;;;16.13;5.13;;;;;;;6.89;100.00;100748.50;4943517;29;20480;-83
2022/01/28 01:25:14;;;;;;;23.30;4.82;;;;;;;6.82;100.00;100765.59;4947382;29;20028;-83
2022/01/28 01:27:40;;;;;;;23.95;5.13;;;;;;;6.89;100.00;100755.50;4944988;29;20575;-83
2022/01/28 01:30:06;;;;;;;18.85;5.18;;;;;;;6.85;100.00;100766.19;4943427;29;20115;-84
2022/01/28 01:32:33;;;;;;;22.08;5.85;;;;;;;6.93;100.00;100752.50;4946036;29;20026;-83
2022/01/28 01:34:59;;;;;;;21.65;5.82;;;;;;;7.11;100.00;100759.75;4948475;29;20038;-83
2022/01/28 01:37:24;;;;;;;17.48;5.22;;;;;;;7.22;100.00;100769.28;4945601;29;20019;-83
2022/01/28 01:39:52;;;;;;;22.98;5.72;;;;;;;7.21;100.00;100765.84;4945713;29;20038;-83
2022/01/28 01:42:41;;;;;;;19.10;5.95;;;;;;;7.31;100.00;100762.47;4924529;29;20059;-83
2022/01/28 01:53:24;;;;;;;13.02;5.97;;;;;;;6.90;100.00;100757.16;4946214;29;20027;-83
2022/01/28 01:55:49;;;;;;;23.00;6.88;;;;;;;6.83;100.00;100772.47;4922837;29;20037;-82
2022/01/28 01:58:15;;;;;;;25.88;6.50;;;;;;;6.88;100.00;100785.16;4947343;29;20458;-81
2022/01/28 02:00:40;;;;;;;16.40;6.60;;;;;;;6.74;100.00;100783.69;4946200;29;20058;-82
2022/01/28 02:03:06;;;;;;;25.55;5.55;;;;;;;6.67;100.00;100794.63;4925651;29;20497;-81
2022/01/28 02:05:31;;;;;;;18.98;5.68;;;;;;;6.82;100.00;100796.94;4945108;29;20027;-81
2022/01/28 02:08:05;;;;;;;17.10;5.38;;;;;;;6.86;100.00;100786.13;4944550;29;20426;-81
2022/01/28 02:10:33;;;;;;;21.15;5.50;;;;;;;6.76;100.00;100795.66;4946730;29;20028;-82
2022/01/28 02:12:58;;;;;;;15.13;5.57;;;;;;;6.77;100.00;100799.09;4939738;29;20103;-81
2022/01/28 02:15:25;;;;;;;18.42;5.30;;;;;;;6.78;100.00;100800.75;4934501;29;20119;-81
2022/01/28 02:17:50;;;;;;;19.80;5.07;;;;;;;6.75;100.00;100801.00;4935304;29;20497;-82
2022/01/28 02:20:31;;;;;;;22.15;5.38;;;;;;;6.68;100.00;100793.69;4934367;29;20035;-81
2022/01/28 02:22:56;;;;;;;19.52;5.32;;;;;;;6.71;100.00;100785.59;4917127;29;20379;-81
2022/01/28 02:25:28;;;;;;;18.88;5.13;;;;;;;6.71;100.00;100790.81;4934896;29;20028;-82
2022/01/28 02:28:03;;;;;;;15.70;4.68;;;;;;;6.68;100.00;100790.25;4934294;29;20031;-83
2022/01/28 02:30:29;;;;;;;21.50;4.75;;;;;;;6.66;100.00;100792.97;4917176;29;20066;-83
2022/01/28 02:33:09;;;;;;;18.77;5.85;;;;;;;6.65;100.00;100799.13;4935138;29;20027;-84
2022/01/28 02:35:35;;;;;;;18.23;4.00;;;;;;;6.67;100.00;100796.41;4934346;29;20047;-83
2022/01/28 02:38:01;;;;;;;16.02;4.43;;;;;;;6.79;100.00;100808.47;4918113;29;20122;-85
2022/01/28 02:40:27;;;;;;;17.40;4.75;;;;;;;6.77;100.00;100809.53;4934204;29;20449;-83
2022/01/28 02:43:05;;;;;;;22.10;5.10;;;;;;;6.73;100.00;100808.94;4916433;29;20041;-85
2022/01/28 02:45:34;;;;;;;17.33;5.03;;;;;;;6.76;100.00;100805.28;4932678;29;20038;-83
2022/01/28 02:48:04;;;;;;;15.00;4.20;;;;;;;6.81;100.00;100805.72;4933698;29;20043;-83
2022/01/28 02:50:37;;;;;;;18.55;6.30;;;;;;;6.63;100.00;100815.88;4901222;29;20067;-84
2022/01/28 02:53:09;;;;;;;16.90;4.85;;;;;;;6.83;100.00;100793.38;4917389;29;20470;-84
2022/01/28 02:55:41;;;;;;;15.63;4.93;;;;;;;6.81;100.00;100800.50;4914962;29;20035;-82
2022/01/28 02:58:19;;;;;;;20.75;4.82;;;;;;;6.53;100.00;100805.38;4932417;29;20115;-83
2022/01/28 03:00:47;;;;;;;16.55;4.90;;;;;;;6.61;100.00;100789.91;4932780;29;20023;-83
2022/01/28 03:03:18;;;;;;;13.32;5.30;;;;;;;6.54;100.00;100773.09;4899193;29;20032;-84
2022/01/28 03:05:45;;;;;;;22.45;4.75;;;;;;;6.74;100.00;100783.69;4934531;29;20431;-84
2022/01/28 03:08:12;;;;;;;17.55;5.07;;;;;;;6.50;100.00;100776.94;4933642;29;20091;-85
2022/01/28 03:15:34;;;;;;;18.48;5.65;;;;;;;6.72;100.00;100786.41;4933849;29;20110;-85
2022/01/28 03:18:17;;;;;;;18.45;5.70;;;;;;;6.57;100.00;100784.09;4917669;29;20040;-84
2022/01/28 03:20:56;;;;;;;27.38;6.28;;;;;;;6.60;100.00;100783.03;4933662;29;20028;-85
2022/01/28 03:23:22;;;;;;;15.02;5.28;;;;;;;6.52;100.00;100780.22;4934324;29;20103;-84
2022/01/28 03:25:49;;;;;;;21.00;5.93;;;;;;;6.53;100.00;100771.44;4934271;29;20122;-84
2022/01/28 03:28:16;;;;;;;16.33;5.13;;;;;;;6.55;100.00;100762.53;4933620;29;20035;-84
2022/01/28 03:30:41;;;;;;;15.93;6.20;;;;;;;6.54;100.00;100767.88;4917151;29;20479;-85
2022/01/28 03:33:08;;;;;;;18.67;5.90;;;;;;;6.72;100.00;100750.72;4902074;29;20045;-84
2022/01/28 03:35:35;;;;;;;18.75;6.20;;;;;;;6.80;100.00;100762.31;4933890;29;20031;-86
2022/01/28 03:38:02;;;;;;;17.05;5.88;;;;;;;6.79;100.00;100768.47;4917229;29;20032;-84
2022/01/28 03:40:33;;;;;;;20.08;5.40;;;;;;;6.79;100.00;100755.44;4930932;29;20051;-84
2022/01/28 03:42:58;;;;;;;18.75;6.20;;;;;;;6.97;100.00;100764.34;4933052;29;20043;-84
2022/01/28 03:45:24;;;;;;;22.83;6.28;;;;;;;6.93;100.00;100757.72;4931426;29;20146;-84
2022/01/28 03:47:49;;;;;;;22.00;5.78;;;;;;;6.88;100.00;100753.84;4933170;29;20035;-84
2022/01/28 03:50:15;;;;;;;18.42;5.43;;;;;;;6.88;100.00;100754.69;4916130;29;20048;-84
2022/01/28 03:52:41;;;;;;;16.60;5.40;;;;;;;6.88;100.00;100753.84;4916898;29;20477;-84
2022/01/28 03:55:07;;;;;;;13.57;5.47;;;;;;;6.68;100.00;100738.06;4933319;29;20042;-86
2022/01/28 03:57:32;;;;;;;20.42;5.30;;;;;;;6.71;100.00;100743.84;4934365;29;20028;-85
2022/01/28 03:59:59;;;;;;;19.80;5.70;;;;;;;6.67;100.00;100746.84;4917254;29;20516;-84
2022/01/28 04:02:28;;;;;;;19.83;5.35;;;;;;;6.63;100.00;100737.59;4916495;29;20107;-85
2022/01/28 04:12:51;;;;;;;19.88;6.53;;;;;;;6.55;100.00;100764.31;4943685;29;20047;-82
2022/01/28 04:17:46;;;;;;;20.02;5.47;;;;;;;6.61;100.00;100763.81;4945178;29;20557;-82
2022/01/28 04:20:12;;;;;;;15.07;5.43;;;;;;;6.47;100.00;100766.72;4947339;29;20031;-83
2022/01/28 04:22:37;;;;;;;16.92;6.25;;;;;;;6.42;100.00;100780.16;4950612;29;20118;-83
2022/01/28 04:25:06;;;;;;;24.63;6.55;;;;;;;6.43;100.00;100771.38;4948197;29;20386;-84
2022/01/28 04:27:32;;;;;;;13.57;5.22;;;;;;;6.43;100.00;100781.81;4947052;29;20043;-83
2022/01/28 04:29:57;;;;;;;13.10;5.38;;;;;;;6.37;100.00;100782.28;4928027;29;20090;-84
2022/01/28 04:32:25;;;;;;;18.05;5.32;;;;;;;6.33;100.00;100788.72;4948985;29;20110;-84
2022/01/28 04:34:53;;;;;;;19.42;6.85;;;;;;;6.29;100.00;100785.53;4928387;29;20043;-83
2022/01/28 04:37:30;;;;;;;15.27;5.88;;;;;;;6.39;100.00;100790.84;4928486;29;20055;-84
2022/01/28 04:45:31;;;;;;;17.08;5.88;;;;;;;6.69;100.00;100794.50;4928913;29;20030;-85
2022/01/28 05:00:26;;;;;;;23.73;9.10;;;;;;;7.02;100.00;100797.06;4947938;29;20057;-84
2022/01/28 05:13:51;;;;;;;23.50;8.38;;;;;;;7.07;100.00;100798.34;4926697;29;20122;-83
2022/01/28 05:27:12;;;;;;;18.98;7.47;;;;;;;7.31;100.00;100796.41;4926871;29;20427;-82
2022/01/28 05:29:41;;;;;;;21.67;7.63;;;;;;;7.20;100.00;100790.31;4926911;29;20500;-82
2022/01/28 05:32:11;;;;;;;19.75;7.63;;;;;;;7.21;100.00;100799.78;4910567;29;20123;-82
2022/01/28 05:34:38;;;;;;;23.85;9.02;;;;;;;7.36;100.00;100789.00;4923514;29;20386;-82
2022/01/28 05:37:04;;;;;;;19.38;9.80;;;;;;;7.37;100.00;100791.50;4926945;29;20110;-82
2022/01/28 05:39:29;;;;;;;24.20;8.98;;;;;;;7.42;100.00;100788.47;4927852;29;20163;-83
2022/01/28 05:41:55;;;;;;;24.15;8.75;;;;;;;7.45;100.00;100796.06;4924702;29;20028;-83
2022/01/28 05:44:22;;;;;;;21.38;10.05;;;;;;;7.43;100.00;100792.75;4929098;29;20122;-83
2022/01/28 05:46:49;;;;;;;29.17;10.05;;;;;;;7.35;100.00;100782.13;4904982;29;20062;-82
2022/01/28 05:49:16;;;;;;;22.77;9.45;;;;;;;7.42;100.00;100778.88;4921578;29;20032;-83
2022/01/28 05:51:42;;;;;;;27.58;10.55;;;;;;;7.40;100.00;100769.50;4926063;29;20032;-83
2022/01/28 05:54:10;;;;;;;25.20;10.98;;;;;;;7.31;100.00;100754.63;4910122;29;20027;-83
2022/01/28 05:56:36;;;;;;;23.25;11.98;;;;;;;7.26;100.00;100755.00;4924313;29;20031;-85
2022/01/28 05:59:02;;;;;;;28.83;12.25;;;;;;;7.22;100.00;100757.03;4900466;29;20508;-84
2022/01/28 06:01:28;;;;;;;28.38;11.50;;;;;;;7.17;100.00;100761.84;4915659;29;20031;-84
2022/01/28 06:03:54;;;;;;;27.52;11.80;;;;;;;7.16;100.00;100757.56;4929477;29;20111;-81
2022/01/28 06:06:22;;;;;;;30.10;13.88;;;;;;;6.96;100.00;100761.84;4910388;29;20033;-83
2022/01/28 06:08:52;;;;;;;38.47;13.70;;;;;;;6.86;100.00;100769.63;4924018;29;20046;-82
2022/01/28 06:11:18;;;;;;;29.50;11.90;;;;;;;6.77;100.00;100775.63;4923519;29;20679;-82
2022/01/28 06:13:44;;;;;;;32.65;11.18;;;;;;;6.60;100.00;100767.38;4929006;29;20043;-82
2022/01/28 06:16:11;;;;;;;31.77;10.82;;;;;;;6.52;100.00;100768.00;4948746;29;20078;-82
2022/01/28 06:18:36;;;;;;;26.20;9.85;;;;;;;6.47;100.00;100766.72;4949278;29;20042;-82
2022/01/28 06:21:03;;;;;;;23.77;10.15;;;;;;;6.38;100.00;100769.13;4938956;29;20095;-81
2022/01/28 06:23:29;;;;;;;29.27;11.13;;;;;;;6.28;100.00;100765.59;4929760;29;20040;-81
2022/01/28 06:25:55;;;;;;;35.47;11.85;;;;;;;6.32;100.00;100780.06;4948455;29;20393;-81
2022/01/28 06:28:21;;;;;;;26.50;11.82;;;;;;;6.40;100.00;100780.25;4943232;28;20023;-81
2022/01/28 06:30:46;;;;;;;27.17;12.30;;;;;;;6.34;100.00;100775.56;4928175;29;20094;-81
2022/01/28 06:33:14;;;;;;;32.45;13.98;;;;;;;6.26;100.00;100772.72;4943933;29;20397;-83
2022/01/28 06:35:44;;;;;;;37.42;13.40;;;;;;;6.22;100.00;100764.34;4940215;29;20481;-81
2022/01/28 06:38:11;;;;;;;30.10;13.18;;;;;;;6.20;100.00;100757.56;4940282;29;20051;-80
2022/01/28 06:40:37;;;;;;;29.63;14.15;;;;;;;6.20;100.00;100742.78;4928165;29;20362;-81
2022/01/28 06:43:03;;;;;;;37.15;15.73;;;;;;;6.08;100.00;100743.75;4945177;29;20041;-82
2022/01/28 06:45:31;;;;;;;36.75;15.93;;;;;;;6.07;100.00;100742.91;4941443;29;20047;-83
2022/01/28 06:47:56;;;;;;;37.05;16.40;;;;;;;6.00;100.00;100723.47;4945020;28;20526;-82
2022/01/28 06:50:22;;;;;;;37.28;16.50;;;;;;;5.99;100.00;100738.31;4949239;29;20118;-83
2022/01/28 06:52:48;;;;;;;32.33;13.70;;;;;;;6.05;100.00;100752.63;4943119;29;20470;-82
2022/01/28 06:55:16;;;;;;;28.17;13.30;;;;;;;6.10;100.00;100745.28;4942061;29;20081;-81
2022/01/28 06:57:42;;;;;;;33.70;14.80;;;;;;;6.08;100.00;100741.94;4941400;29;20437;-81
2022/01/28 07:00:10;;;;;;;42.47;15.98;;;;;;;6.08;100.00;100739.34;4944211;29;20031;-81
2022/01/28 07:02:36;;;;;;;31.98;14.10;;;;;;;6.07;100.00;100737.69;4926124;29;20494;-83
2022/01/28 07:05:03;;;;;;;41.65;15.38;;;;;;;6.12;100.00;100737.31;4948625;29;20434;-84
2022/01/28 07:07:28;;;;;;;45.55;18.40;;;;;;;6.10;100.00;100742.69;4931112;29;20031;-84
2022/01/28 07:09:54;;;;;;;44.30;19.30;;;;;;;6.07;100.00;100739.47;4945430;29;20043;-83
2022/01/28 07:12:21;;;;;;;32.58;16.88;;;;;;;6.10;100.00;100734.84;4928120;29;20470;-82
2022/01/28 07:14:49;;;;;;;32.13;14.50;;;;;;;6.18;100.00;100736.00;4914250;29;20032;-84
2022/01/28 07:17:15;;;;;;;37.53;14.27;;;;;;;6.16;100.00;100736.13;4934325;29;20054;-83
2022/01/28 07:19:41;;;;;;;36.97;15.82;;;;;;;6.19;100.00;100750.69;4901603;29;20470;-84
2022/01/28 07:22:07;;;;;;;39.65;15.13;;;;;;;6.20;100.00;100760.19;4933862;29;20034;-86
2022/01/28 07:24:32;;;;;;;36.53;14.15;;;;;;;6.29;100.00;100759.47;4917432;29;20027;-82
2022/01/28 07:27:01;;;;;;;34.60;13.55;;;;;;;6.34;100.00;100759.91;4932305;29;20047;-82
2022/01/28 07:29:31;;;;;;;30.40;14.52;;;;;;;6.42;100.00;100759.28;4934196;29;20494;-82
2022/01/28 07:31:57;;;;;;;41.42;14.95;;;;;;;6.54;100.00;100763.47;4937113;29;20031;-81
2022/01/28 07:34:23;;;;;;;33.95;15.32;;;;;;;6.60;100.00;100758.75;4933561;29;20050;-82
2022/01/28 07:36:49;;;;;;;33.95;14.13;;;;;;;6.54;100.00;100762.69;4899629;29;20390;-81
2022/01/28 07:39:15;;;;;;;34.15;15.45;;;;;;;6.46;100.00;100759.84;4933180;29;20035;-81
2022/01/28 07:41:40;;;;;;;34.42;15.80;;;;;;;6.37;100.00;100745.78;4930494;29;20037;-82
2022/01/28 07:44:06;;;;;;;33.33;14.70;;;;;;;6.46;100.00;100754.63;4932047;29;20039;-81
2022/01/28 07:46:33;;;;;;;35.83;14.80;;;;;;;6.48;100.00;100764.00;4934050;29;20062;-81
2022/01/28 07:49:00;;;;;;;40.45;16.02;;;;;;;6.58;100.00;100769.28;4933140;29;20485;-80
2022/01/28 07:51:26;;;;;;;35.88;16.20;;;;;;;6.72;100.00;100766.38;4934337;29;20090;-82
2022/01/28 07:53:52;;;;;;;37.30;18.75;;;;;;;6.91;100.00;100775.31;4933044;29;20478;-83
2022/01/28 07:56:18;;;;;;;34.03;15.30;;;;;;;7.03;100.00;100773.44;4916700;29;20114;-79
2022/01/28 07:58:44;;;;;;;31.98;15.55;;;;;;;7.12;100.00;100766.63;4933807;29;20031;-82
2022/01/28 08:01:09;;;;;;;31.13;15.55;;;;;;;7.19;100.00;100767.75;4916040;29;20162;-81
2022/01/28 08:03:35;;;;;;;36.30;16.00;;;;;;;7.32;100.00;100777.19;4933895;29;20078;-79
2022/01/28 08:06:01;;;;;;;38.47;16.10;;;;;;;7.49;100.00;100773.97;4914964;29;20131;-80
2022/01/28 08:08:27;;;;;;;38.30;17.33;;;;;;;7.52;100.00;100778.91;4931710;29;20041;-80
2022/01/28 08:10:53;;;;;;;55.60;24.52;;;;;;;7.60;100.00;100778.25;4933446;29;20075;-79
2022/01/28 08:13:19;;;;;;;66.63;29.08;;;;;;;7.60;100.00;100774.81;4923817;29;20098;-79
2022/01/28 08:15:45;;;;;;;64.20;30.40;;;;;;;7.72;100.00;100773.75;4943838;29;20122;-79
2022/01/28 08:18:11;;;;;;;46.45;20.88;;;;;;;7.77;100.00;100774.19;4925564;29;20117;-78
2022/01/28 08:20:37;;;;;;;42.55;19.85;;;;;;;7.79;100.00;100761.81;4941760;29;20496;-79
2022/01/28 08:23:04;;;;;;;47.03;23.63;;;;;;;7.91;100.00;100767.75;4926825;29;20106;-82
2022/01/28 08:25:32;;;;;;;55.33;25.17;;;;;;;7.96;100.00;100762.13;4939360;29;20031;-82
2022/01/28 08:27:59;;;;;;;56.45;25.13;;;;;;;7.92;100.00;100758.94;4942776;29;20109;-79
2022/01/28 08:30:26;;;;;;;64.10;26.85;;;;;;;7.89;100.00;100758.41;4911389;29;21117;-80
2022/01/28 08:32:53;;;;;;;49.13;23.10;;;;;;;7.92;100.00;100753.72;4925334;29;20059;-80
2022/01/28 08:35:40;;;;;;;43.35;21.05;;;;;;;7.96;100.00;100754.28;4907821;29;20106;-80
2022/01/28 08:38:14;;;;;;;33.08;16.85;;;;;;;8.01;100.00;100757.31;4914737;29;20054;-80
2022/01/28 08:40:40;;;;;;;35.05;18.73;;;;;;;8.02;100.00;100753.72;4918516;29;20398;-80
2022/01/28 08:43:06;;;;;;;37.53;20.13;;;;;;;8.12;100.00;100751.97;4940124;29;20031;-80
2022/01/28 08:45:32;;;;;;;36.67;20.33;;;;;;;8.14;100.00;100742.19;4938054;29;20034;-81
2022/01/28 08:47:58;;;;;;;38.90;19.73;;;;;;;8.15;100.00;100743.84;4923242;29;20036;-81
2022/01/28 08:50:23;;;;;;;39.80;22.05;;;;;;;8.11;100.00;100755.53;4939766;28;20167;-82
2022/01/28 08:52:49;;;;;;;37.75;23.15;;;;;;;8.11;100.00;100752.09;4930035;29;20036;-81
2022/01/28 08:55:15;;;;;;;40.58;20.63;;;;;;;8.13;100.00;100756.22;4937398;29;20043;-81
2022/01/28 08:57:44;;;;;;;35.40;18.70;;;;;;;8.12;100.00;100738.03;4945205;29;20023;-80
2022/01/28 09:00:12;;;;;;;37.17;18.77;;;;;;;8.24;100.00;100741.34;4930657;29;20034;-80
2022/01/28 09:02:40;;;;;;;35.38;17.95;;;;;;;8.21;100.00;100720.72;4928584;29;20035;-80
2022/01/28 09:05:06;;;;;;;35.65;18.30;;;;;;;8.30;100.00;100717.28;4930620;29;20031;-80
2022/01/28 09:07:34;;;;;;;32.70;17.60;;;;;;;8.32;100.00;100698.81;4910604;29;20043;-80
2022/01/28 09:10:06;;;;;;;37.10;18.10;;;;;;;8.33;100.00;100703.91;4948299;29;20122;-82
2022/01/28 09:12:39;;;;;;;33.38;18.75;;;;;;;8.36;100.00;100715.91;4942802;29;20450;-80
2022/01/28 09:15:07;;;;;;;34.63;18.77;;;;;;;8.36;100.00;100714.09;4926467;29;20122;-80
2022/01/28 09:17:33;;;;;;;35.05;17.83;;;;;;;8.44;100.00;100716.84;4942712;29;20066;-80
2022/01/28 09:19:58;;;;;;;34.80;14.63;;;;;;;8.41;100.00;100706.66;4945070;29;20062;-80
2022/01/28 09:22:25;;;;;;;27.88;13.77;;;;;;;8.55;100.00;100702.00;4943894;29;20039;-81
2022/01/28 09:24:56;;;;;;;31.50;14.63;;;;;;;8.67;100.00;100695.66;4932947;29;20035;-84
2022/01/28 09:27:22;;;;;;;30.27;14.85;;;;;;;8.79;100.00;100687.63;4911083;29;20040;-81
2022/01/28 09:29:47;;;;;;;25.75;14.15;;;;;;;8.85;100.00;100690.50;4927931;29;20401;-84
2022/01/28 09:32:13;;;;;;;26.58;14.60;;;;;;;8.90;100.00;100695.31;4927810;29;20036;-79
2022/01/28 09:34:39;;;;;;;26.92;16.52;;;;;;;8.93;100.00;100684.56;4926299;29;20039;-79
2022/01/28 09:37:19;;;;;;;26.83;16.83;;;;;;;9.09;100.00;100683.94;4944028;29;20114;-82
2022/01/28 09:39:45;;;;;;;37.50;19.27;;;;;;;9.11;100.00;100700.31;4944316;29;20031;-79
2022/01/28 09:42:15;;;;;;;36.15;18.67;;;;;;;9.21;100.00;100678.53;4944075;29;20038;-81
2022/01/28 09:44:42;;;;;;;29.00;17.13;;;;;;;9.37;100.00;100683.97;4925195;29;20027;-81
2022/01/28 09:47:11;;;;;;;37.92;19.55;;;;;;;9.36;100.00;100689.34;4943889;29;20067;-81
2022/01/28 09:49:39;;;;;;;32.40;16.95;;;;;;;9.46;100.00;100698.00;4927916;29;20035;-81
2022/01/28 09:52:09;;;;;;;25.05;15.10;;;;;;;9.60;100.00;100707.16;4944963;29;20035;-81
2022/01/28 09:54:35;;;;;;;26.55;13.05;;;;;;;9.53;100.00;100672.84;4949723;29;20074;-82
2022/01/28 09:57:04;;;;;;;26.60;12.40;;;;;;;9.77;100.00;100686.34;4946999;29;20078;-81
2022/01/28 09:59:30;;;;;;;18.88;12.07;;;;;;;9.85;100.00;100682.03;4941442;29;20091;-81
2022/01/28 10:01:56;;;;;;;19.55;11.73;;;;;;;9.82;100.00;100684.91;4910197;29;20082;-81
2022/01/28 10:04:23;;;;;;;18.38;9.93;;;;;;;9.82;100.00;100679.66;4945933;29;20038;-81
2022/01/28 10:06:49;;;;;;;16.55;9.00;;;;;;;9.79;100.00;100687.84;4946303;29;20046;-80
2022/01/28 10:09:18;;;;;;;19.50;8.63;;;;;;;9.84;100.00;100677.75;4941837;29;20055;-81
2022/01/28 10:11:48;;;;;;;22.98;9.00;;;;;;;9.98;100.00;100675.56;4923482;29;20055;-81
2022/01/28 10:14:21;;;;;;;14.82;7.65;;;;;;;10.04;100.00;100677.59;4934401;29;20038;-81
2022/01/28 10:16:58;;;;;;;10.98;5.15;;;;;;;9.79;100.00;100659.00;4935185;29;20482;-81
2022/01/28 10:19:26;;;;;;;14.23;8.15;;;;;;;9.97;100.00;100663.41;4915146;29;20394;-80
2022/01/28 10:21:53;;;;;;;14.50;7.47;;;;;;;9.71;100.00;100654.50;4933778;29;20035;-80
2022/01/28 10:24:24;;;;;;;15.75;6.72;;;;;;;9.25;100.00;100644.03;4912761;29;20031;-80
2022/01/28 10:27:07;;;;;;;12.07;6.55;;;;;;;9.57;100.00;100640.09;4914558;29;20059;-80
2022/01/28 10:29:41;;;;;;;14.88;8.27;;;;;;;9.65;100.00;100639.34;4930542;29;20115;-81
2022/01/28 10:32:12;;;;;;;17.15;7.43;;;;;;;9.66;100.00;100632.34;4902252;29;20051;-80
2022/01/28 10:34:56;;;;;;;14.13;7.43;;;;;;;9.79;100.00;100627.53;4928917;29;20039;-80
2022/01/28 10:37:32;;;;;;;13.43;8.18;;;;;;;9.80;100.00;100626.53;4933281;29;20099;-78
2022/01/28 10:40:17;;;;;;;12.00;8.05;;;;;;;9.49;100.00;100637.41;4914388;29;20032;-79
2022/01/28 10:42:52;;;;;;;14.10;7.95;;;;;;;9.89;100.00;100630.06;4914465;29;20032;-79
2022/01/28 10:45:28;;;;;;;9.85;7.20;;;;;;;10.13;100.00;100633.91;4934217;29;20036;-79
2022/01/28 10:47:56;;;;;;;8.60;6.55;;;;;;;10.03;100.00;100647.09;4932221;29;20091;-79
2022/01/28 10:50:28;;;;;;;13.45;6.75;;;;;;;10.10;100.00;100652.53;4931471;29;20023;-79
2022/01/28 10:53:05;;;;;;;14.50;6.45;;;;;;;9.86;100.00;100657.44;4934461;29;20073;-79
2022/01/28 10:55:34;;;;;;;12.00;6.20;;;;;;;9.75;100.00;100647.16;4933246;29;20046;-79
2022/01/28 10:58:09;;;;;;;11.48;5.88;;;;;;;9.70;100.00;100650.22;4901334;29;20040;-78
2022/01/28 11:00:43;;;;;;;7.90;5.07;;;;;;;9.85;100.00;100636.59;4912030;29;20035;-79
2022/01/28 11:03:12;;;;;;;9.68;5.60;;;;;;;9.95;100.00;100647.00;4934017;29;20064;-79
2022/01/28 11:05:39;;;;;;;14.38;5.60;;;;;;;9.80;100.00;100637.03;4931877;29;20035;-80
2022/01/28 11:08:07;;;;;;;11.57;5.68;;;;;;;9.85;100.00;100619.06;4916259;29;20110;-80
2022/01/28 11:10:33;;;;;;;11.00;5.72;;;;;;;10.06;100.00;100619.72;4933956;29;20031;-79
2022/01/28 11:13:00;;;;;;;11.13;5.60;;;;;;;10.13;100.00;100600.59;4930576;29;20521;-79
2022/01/28 11:15:28;;;;;;;9.48;5.32;;;;;;;10.33;100.00;100592.53;4916252;29;20055;-79
2022/01/28 11:17:54;;;;;;;9.63;5.28;;;;;;;10.43;100.00;100606.41;4934102;29;20397;-79
2022/01/28 11:20:28;;;;;;;9.98;5.35;;;;;;;10.38;100.00;100579.75;4933009;29;20119;-78
2022/01/28 11:23:21;;;;;;;8.82;4.65;;;;;;;10.48;100.00;100589.38;4930922;29;20023;-78
2022/01/28 11:26:11;;;;;;;10.98;5.25;;;;;;;10.38;100.00;100598.13;4928854;29;20024;-79
2022/01/28 11:28:40;;;;;;;13.18;5.30;;;;;;;10.27;100.00;100593.97;4931148;29;20039;-79
2022/01/28 11:31:06;;;;;;;9.25;5.15;;;;;;;10.47;100.00;100592.97;4931268;29;20051;-79
2022/01/28 11:33:50;;;;;;;16.20;5.72;;;;;;;10.68;100.00;100598.66;4928874;29;20032;-78
2022/01/28 11:36:49;;;;;;;7.32;4.50;;;;;;;10.89;100.00;100592.19;4909217;29;20110;-80
2022/01/28 11:39:28;;;;;;;10.05;4.75;;;;;;;10.90;100.00;100585.94;4896541;29;20040;-79
2022/01/28 11:42:03;;;;;;;11.02;5.28;;;;;;;10.94;100.00;100578.59;4931492;29;20438;-79
2022/01/28 11:44:50;;;;;;;9.57;4.80;;;;;;;10.99;100.00;100571.84;4931683;29;20099;-78
2022/01/28 11:47:28;;;;;;;7.97;4.63;;;;;;;11.02;100.00;100570.72;4911112;29;20119;-79
2022/01/28 11:50:18;;;;;;;9.35;4.90;;;;;;;11.06;100.00;100565.97;4928549;29;20119;-78
2022/01/28 11:52:44;;;;;;;8.15;4.50;;;;;;;11.21;100.00;100560.91;4931039;29;20031;-79
2022/01/28 11:55:25;;;;;;;10.57;4.25;;;;;;;11.06;100.00;100560.72;4927993;29;20406;-79
2022/01/28 11:58:05;;;;;;;11.32;4.55;;;;;;;11.20;100.00;100551.38;4913095;29;20032;-79
2022/01/28 12:00:41;;;;;;;7.00;4.40;;;;;;;11.35;100.00;100554.19;4926590;29;20039;-79
2022/01/28 12:03:28;;;;;;;9.93;5.57;;;;;;;11.32;100.00;100549.28;4909084;29;20067;-79
2022/01/28 12:05:57;;;;;;;8.30;4.95;;;;;;;11.28;100.00;100543.50;4914858;29;20019;-78
2022/01/28 12:08:30;;;;;;;8.10;4.07;;;;;;;11.18;100.00;100527.88;4913606;29;20122;-79
2022/01/28 12:10:57;;;;;;;6.40;4.38;;;;;;;11.26;100.00;100535.81;4932316;29;20035;-78
2022/01/28 12:13:32;;;;;;;11.95;4.50;;;;;;;10.97;100.00;100521.28;4938369;29;20410;-78
2022/01/28 12:18:45;;;;;;;9.32;4.53;;;;;;;10.89;100.00;100508.13;4934187;29;20478;-78
2022/01/28 12:21:16;;;;;;;9.45;4.10;;;;;;;10.82;100.00;100512.38;4915383;29;20358;-78
2022/01/28 12:23:44;;;;;;;8.45;4.38;;;;;;;10.93;100.00;100498.94;4933180;29;20052;-78
2022/01/28 12:26:13;;;;;;;7.65;5.40;;;;;;;10.89;100.00;100538.81;4938440;29;20063;-77
2022/01/28 12:29:08;;;;;;;8.98;5.18;;;;;;;10.46;100.00;100554.56;4937686;29;20569;-77
2022/01/28 12:31:34;;;;;;;6.72;4.70;;;;;;;10.39;100.00;100560.41;4922986;29;20392;-77
2022/01/28 12:34:03;;;;;;;9.57;5.25;;;;;;;10.26;100.00;100575.75;4920778;29;20036;-78
2022/01/28 12:36:38;;;;;;;8.23;5.82;;;;;;;10.38;100.00;100566.63;4922517;29;20035;-78
2022/01/28 12:39:13;;;;;;;9.10;5.75;;;;;;;10.38;100.00;100548.25;4944853;29;20036;-77
2022/01/28 12:41:57;;;;;;;13.95;6.40;;;;;;;10.21;100.00;100530.75;4943733;29;20086;-78
2022/01/28 12:44:23;;;;;;;9.27;5.95;;;;;;;10.27;100.00;100528.34;4954105;29;20470;-77
2022/01/28 12:46:54;;;;;;;11.05;6.07;;;;;;;10.33;100.00;100515.59;4942904;29;20182;-77
2022/01/28 12:49:27;;;;;;;13.10;6.97;;;;;;;10.33;100.00;100515.59;4931141;29;20038;-78
2022/01/28 12:51:56;;;;;;;8.68;5.88;;;;;;;10.35;100.00;100506.56;4927996;29;20043;-78